createdAt,value
2018-08-07T00:00:21.313Z,24.96
2018-08-07T00:02:51.059Z,24.63
2018-08-07T00:05:19.573Z,24.62
2018-08-07T00:07:50.555Z,24.60
2018-08-07T00:10:20.401Z,24.58
2018-08-07T00:12:49.040Z,24.66
2018-08-07T00:15:17.630Z,24.54
2018-08-07T00:17:46.126Z,24.72
2018-08-07T00:20:16.169Z,24.62
2018-08-07T00:22:46.085Z,24.61
2018-08-07T00:25:15.327Z,24.60
2018-08-07T00:27:44.374Z,24.42
2018-08-07T00:30:15.226Z,24.44
2018-08-07T00:32:44.085Z,24.49
2018-08-07T00:35:19.379Z,24.29
2018-08-07T00:37:48.499Z,24.32
2018-08-07T00:40:18.191Z,24.09
2018-08-07T00:42:47.039Z,24.03
2018-08-07T00:45:17.760Z,24.08
2018-08-07T00:47:46.384Z,24.15
2018-08-07T00:50:17.477Z,24.22
2018-08-07T00:52:47.039Z,24.18
2018-08-07T00:55:16.420Z,24.11
2018-08-07T00:57:45.056Z,23.98
2018-08-07T01:00:14.587Z,23.99
2018-08-07T01:02:45.887Z,23.94
2018-08-07T01:05:16.309Z,23.76
2018-08-07T01:07:44.918Z,23.75
2018-08-07T01:10:15.768Z,23.74
2018-08-07T01:12:44.462Z,23.78
2018-08-07T01:15:16.486Z,23.67
2018-08-07T01:17:45.932Z,23.66
2018-08-07T01:20:16.005Z,23.75
2018-08-07T01:22:45.132Z,23.62
2018-08-07T01:25:17.998Z,23.64
2018-08-07T01:27:46.472Z,23.61
2018-08-07T01:30:17.324Z,23.55
2018-08-07T01:32:45.824Z,23.65
2018-08-07T01:35:14.278Z,23.52
2018-08-07T01:37:42.826Z,23.43
2018-08-07T01:40:12.624Z,23.14
2018-08-07T01:42:41.915Z,23.03
2018-08-07T01:45:11.517Z,22.98
2018-08-07T01:47:40.544Z,23.08
2018-08-07T01:50:11.161Z,23.17
2018-08-07T01:52:39.687Z,23.29
2018-08-07T01:55:10.267Z,23.21
2018-08-07T01:57:38.882Z,23.20
2018-08-07T02:00:11.233Z,23.20
2018-08-07T02:02:39.738Z,23.06
2018-08-07T02:05:10.470Z,23.14
2018-08-07T02:07:38.980Z,23.02
2018-08-07T02:10:10.320Z,22.95
2018-08-07T02:12:38.857Z,22.91
2018-08-07T02:15:08.335Z,22.91
2018-08-07T02:17:36.797Z,22.82
2018-08-07T02:20:07.046Z,22.77
2018-08-07T02:22:36.099Z,22.69
2018-08-07T02:25:06.130Z,22.63
2018-08-07T02:27:34.624Z,22.56
2018-08-07T02:30:03.136Z,22.43
2018-08-07T02:32:31.584Z,22.46
2018-08-07T02:35:00.038Z,22.44
2018-08-07T02:37:28.510Z,22.51
2018-08-07T02:39:57.198Z,22.46
2018-08-07T02:42:25.811Z,22.39
2018-08-07T02:44:54.295Z,22.33
2018-08-07T02:47:22.864Z,22.21
2018-08-07T02:49:51.515Z,22.31
2018-08-07T02:52:20.002Z,22.44
2018-08-07T02:54:48.698Z,23.91
2018-08-07T02:57:17.420Z,24.95
2018-08-07T02:59:45.856Z,24.55
2018-08-07T03:02:14.414Z,23.40
2018-08-07T03:04:42.887Z,22.73
2018-08-07T03:07:11.359Z,22.39
2018-08-07T03:09:39.933Z,24.50
2018-08-07T03:12:08.617Z,25.14
2018-08-07T03:14:37.072Z,25.18
2018-08-07T03:17:06.547Z,24.46
2018-08-07T03:19:35.027Z,23.25
2018-08-07T03:22:03.504Z,24.00
2018-08-07T03:24:31.987Z,23.78
2018-08-07T03:27:00.484Z,25.26
2018-08-07T03:29:28.907Z,24.01
2018-08-07T03:31:57.337Z,24.26
2018-08-07T03:34:25.829Z,23.37
2018-08-07T03:36:54.380Z,24.60
2018-08-07T03:39:22.887Z,25.11
2018-08-07T03:41:51.371Z,24.92
2018-08-07T03:44:19.830Z,25.02
2018-08-07T03:46:48.319Z,25.04
2018-08-07T03:49:16.856Z,25.02
2018-08-07T03:51:45.283Z,23.77
2018-08-07T03:54:13.799Z,23.03
2018-08-07T03:56:42.288Z,22.86
2018-08-07T03:59:10.887Z,22.80
2018-08-07T04:01:39.239Z,22.36
2018-08-07T04:04:07.975Z,22.36
2018-08-07T04:06:36.424Z,22.57
2018-08-07T04:09:12.010Z,22.67
2018-08-07T04:11:40.814Z,22.47
2018-08-07T04:14:10.367Z,22.38
2018-08-07T04:16:43.262Z,22.21
2018-08-07T04:19:12.262Z,22.47
2018-08-07T04:21:40.780Z,22.20
2018-08-07T04:24:09.215Z,22.47
2018-08-07T04:26:37.688Z,22.60
2018-08-07T04:29:07.467Z,22.49
2018-08-07T04:31:36.219Z,22.30
2018-08-07T04:34:04.689Z,22.25
2018-08-07T04:36:33.479Z,22.21
2018-08-07T04:39:02.502Z,22.41
2018-08-07T04:41:30.916Z,22.75
2018-08-07T04:43:59.659Z,22.82
2018-08-07T04:46:28.315Z,22.90
2018-08-07T04:48:57.004Z,23.00
2018-08-07T04:51:25.694Z,22.89
2018-08-07T04:53:54.200Z,22.81
2018-08-07T04:56:23.175Z,22.69
2018-08-07T04:58:51.615Z,22.54
2018-08-07T05:01:20.070Z,22.70
2018-08-07T05:03:48.519Z,22.80
2018-08-07T05:06:17.246Z,22.83
2018-08-07T05:08:45.908Z,23.07
2018-08-07T05:11:14.352Z,23.16
2018-08-07T05:13:42.827Z,23.19
2018-08-07T05:16:11.315Z,22.85
2018-08-07T05:18:40.071Z,22.99
2018-08-07T05:21:08.640Z,23.25
2018-08-07T05:23:37.092Z,23.27
2018-08-07T05:26:05.812Z,23.34
2018-08-07T05:28:34.520Z,23.54
2018-08-07T05:31:02.955Z,23.66
2018-08-07T05:33:31.423Z,23.65
2018-08-07T05:36:00.119Z,23.34
2018-08-07T05:38:30.294Z,23.53
2018-08-07T05:40:58.777Z,23.61
2018-08-07T05:43:27.247Z,23.37
2018-08-07T05:45:55.707Z,23.63
2018-08-07T05:48:24.185Z,23.83
2018-08-07T05:50:53.354Z,23.88
2018-08-07T05:53:21.511Z,23.90
2018-08-07T05:55:50.178Z,24.21
2018-08-07T05:58:18.690Z,24.05
2018-08-07T06:00:47.144Z,24.04
2018-08-07T06:03:15.811Z,24.36
2018-08-07T06:05:44.253Z,24.23
2018-08-07T06:08:12.883Z,24.52
2018-08-07T06:10:41.383Z,24.66
2018-08-07T06:13:10.145Z,24.52
2018-08-07T06:15:38.646Z,24.46
2018-08-07T06:18:07.752Z,24.45
2018-08-07T06:20:36.273Z,24.94
2018-08-07T06:23:04.789Z,24.81
2018-08-07T06:25:33.301Z,24.36
2018-08-07T06:28:01.779Z,24.60
2018-08-07T06:30:31.169Z,24.43
2018-08-07T06:32:59.643Z,24.46
2018-08-07T06:35:28.178Z,24.77
2018-08-07T06:37:56.602Z,24.84
2018-08-07T06:40:25.107Z,24.91
2018-08-07T06:42:53.563Z,24.79
2018-08-07T06:45:22.017Z,24.92
2018-08-07T06:47:50.459Z,25.20
2018-08-07T06:50:20.554Z,25.13
2018-08-07T06:52:50.124Z,25.09
2018-08-07T06:55:18.563Z,25.35
2018-08-07T06:57:47.038Z,25.23
2018-08-07T07:00:22.255Z,25.36
2018-08-07T07:02:50.867Z,25.17
2018-08-07T07:05:19.693Z,25.37
2018-08-07T07:07:48.156Z,25.19
2018-08-07T07:10:16.938Z,25.50
2018-08-07T07:12:46.184Z,25.34
2018-08-07T07:15:15.691Z,25.57
2018-08-07T07:17:45.524Z,25.80
2018-08-07T07:20:15.477Z,26.14
2018-08-07T07:22:45.396Z,25.91
2018-08-07T07:25:13.928Z,26.34
2018-08-07T07:27:42.744Z,26.60
2018-08-07T07:30:17.683Z,26.76
2018-08-07T07:32:47.302Z,26.64
2018-08-07T07:35:16.589Z,26.90
2018-08-07T07:37:45.123Z,27.30
2018-08-07T07:40:13.996Z,27.12
2018-08-07T07:42:42.450Z,26.85
2018-08-07T07:45:14.293Z,26.64
2018-08-07T07:47:43.700Z,26.48
2018-08-07T07:50:15.752Z,26.23
2018-08-07T07:52:44.871Z,26.73
2018-08-07T07:55:14.518Z,27.60
2018-08-07T07:57:43.040Z,27.40
2018-08-07T08:00:14.475Z,27.47
2018-08-07T08:02:42.947Z,27.47
2018-08-07T08:05:11.391Z,27.05
2018-08-07T08:07:40.319Z,27.36
2018-08-07T08:10:09.991Z,27.39
2018-08-07T08:12:39.858Z,27.72
2018-08-07T08:15:14.496Z,27.24
2018-08-07T08:17:44.167Z,27.52
2018-08-07T08:20:14.719Z,27.68
2018-08-07T08:22:43.496Z,27.75
2018-08-07T08:25:12.205Z,27.38
2018-08-07T08:27:41.179Z,27.22
2018-08-07T08:30:14.048Z,28.20
2018-08-07T08:32:42.938Z,28.37
2018-08-07T08:35:13.325Z,28.18
2018-08-07T08:37:42.392Z,27.78
2018-08-07T08:40:20.110Z,28.55
2018-08-07T08:42:48.615Z,29.31
2018-08-07T08:45:19.204Z,28.77
2018-08-07T08:47:49.249Z,28.91
2018-08-07T08:50:18.887Z,28.41
2018-08-07T08:52:47.398Z,28.23
2018-08-07T08:55:15.896Z,28.95
2018-08-07T08:57:45.022Z,29.43
2018-08-07T09:00:22.763Z,29.45
2018-08-07T09:02:51.534Z,29.81
2018-08-07T09:05:19.997Z,29.63
2018-08-07T09:07:48.464Z,30.05
2018-08-07T09:10:21.447Z,28.76
2018-08-07T09:12:50.690Z,29.21
2018-08-07T09:15:19.543Z,29.75
2018-08-07T09:17:48.430Z,29.84
2018-08-07T09:20:20.813Z,30.10
2018-08-07T09:22:49.813Z,30.48
2018-08-07T09:25:19.146Z,30.40
2018-08-07T09:27:47.574Z,30.91
2018-08-07T09:30:21.423Z,30.43
2018-08-07T09:32:50.640Z,30.19
2018-08-07T09:35:20.033Z,30.69
2018-08-07T09:37:48.587Z,29.79
2018-08-07T09:40:18.756Z,30.78
2018-08-07T09:42:48.721Z,31.23
2018-08-07T09:45:20.632Z,30.94
2018-08-07T09:47:52.003Z,31.77
2018-08-07T09:50:21.608Z,30.77
2018-08-07T09:52:50.356Z,30.94
2018-08-07T09:55:19.067Z,30.33
2018-08-07T09:57:47.827Z,30.82
2018-08-07T10:00:25.555Z,31.11
2018-08-07T10:02:56.685Z,32.00
2018-08-07T10:05:26.892Z,29.96
2018-08-07T10:07:55.199Z,30.98
2018-08-07T10:10:24.227Z,31.92
2018-08-07T10:12:52.691Z,32.38
2018-08-07T10:15:21.444Z,33.02
2018-08-07T10:17:49.929Z,33.33
2018-08-07T10:20:18.418Z,33.82
2018-08-07T10:22:47.009Z,32.03
2018-08-07T10:25:16.964Z,32.61
2018-08-07T10:27:46.368Z,33.09
2018-08-07T10:30:16.457Z,32.17
2018-08-07T10:32:44.977Z,31.36
2018-08-07T10:35:14.244Z,31.86
2018-08-07T10:37:43.664Z,32.97
2018-08-07T10:40:21.862Z,32.48
2018-08-07T10:42:50.469Z,33.76
2018-08-07T10:45:20.664Z,34.17
2018-08-07T10:47:49.251Z,32.48
2018-08-07T10:50:20.699Z,32.42
2018-08-07T10:52:49.616Z,32.47
2018-08-07T10:55:18.875Z,33.09
2018-08-07T10:57:48.949Z,32.74
2018-08-07T11:00:23.460Z,32.94
2018-08-07T11:02:52.688Z,33.90
2018-08-07T11:05:21.747Z,34.48
2018-08-07T11:07:50.328Z,32.83
2018-08-07T11:10:19.119Z,33.55
2018-08-07T11:12:47.588Z,34.54
2018-08-07T11:15:19.715Z,34.32
2018-08-07T11:17:48.923Z,34.45
2018-08-07T11:20:17.743Z,34.02
2018-08-07T11:22:47.724Z,33.92
2018-08-07T11:25:17.597Z,33.19
2018-08-07T11:27:46.132Z,33.35
2018-08-07T11:30:19.770Z,34.64
2018-08-07T11:32:48.835Z,33.95
2018-08-07T11:35:17.918Z,33.24
2018-08-07T11:37:49.008Z,33.39
2018-08-07T11:40:19.347Z,33.82
2018-08-07T11:42:48.887Z,33.92
2018-08-07T11:45:18.849Z,34.77
2018-08-07T11:47:47.545Z,34.30
2018-08-07T11:50:17.834Z,35.43
2018-08-07T11:52:46.800Z,35.64
2018-08-07T11:55:16.716Z,35.63
2018-08-07T11:57:46.140Z,35.54
2018-08-07T12:00:21.190Z,35.82
2018-08-07T12:02:49.979Z,34.64
2018-08-07T12:05:18.782Z,36.61
2018-08-07T12:07:47.447Z,37.84
2018-08-07T12:10:17.403Z,37.41
2018-08-07T12:12:46.369Z,38.42
2018-08-07T12:15:17.128Z,38.16
2018-08-07T12:17:45.752Z,39.90
2018-08-07T12:20:14.397Z,40.51
2018-08-07T12:22:43.290Z,41.23
2018-08-07T12:25:13.463Z,38.72
2018-08-07T12:27:41.970Z,38.95
2018-08-07T12:30:16.054Z,37.93
2018-08-07T12:32:44.781Z,40.08
2018-08-07T12:35:13.292Z,40.77
2018-08-07T12:37:41.908Z,39.85
2018-08-07T12:40:15.902Z,39.43
2018-08-07T12:42:44.802Z,38.97
2018-08-07T12:45:13.374Z,38.31
2018-08-07T12:47:42.696Z,39.38
2018-08-07T12:50:12.393Z,39.57
2018-08-07T12:52:40.904Z,40.11
2018-08-07T12:55:11.815Z,41.05
2018-08-07T12:57:40.334Z,41.07
2018-08-07T13:00:14.880Z,41.05
2018-08-07T13:02:43.810Z,42.03
2018-08-07T13:05:12.319Z,43.23
2018-08-07T13:07:40.975Z,43.31
2018-08-07T13:10:14.428Z,40.22
2018-08-07T13:12:43.891Z,39.69
2018-08-07T13:15:14.265Z,42.72
2018-08-07T13:17:43.189Z,40.63
2018-08-07T13:20:12.025Z,42.36
2018-08-07T13:22:41.612Z,41.74
2018-08-07T13:25:13.080Z,40.55
2018-08-07T13:27:41.598Z,39.77
2018-08-07T13:30:15.291Z,39.02
2018-08-07T13:32:43.808Z,38.49
2018-08-07T13:35:12.721Z,38.39
2018-08-07T13:37:42.345Z,37.25
2018-08-07T13:40:13.491Z,37.82
2018-08-07T13:42:41.986Z,37.92
2018-08-07T13:45:12.827Z,37.66
2018-08-07T13:47:41.258Z,36.74
2018-08-07T13:50:13.099Z,36.46
2018-08-07T13:52:42.143Z,37.68
2018-08-07T13:55:11.255Z,38.30
2018-08-07T13:57:40.057Z,38.17
2018-08-07T14:00:17.925Z,38.45
2018-08-07T14:02:47.260Z,39.10
2018-08-07T14:05:16.977Z,40.26
2018-08-07T14:07:46.344Z,40.90
2018-08-07T14:10:15.563Z,39.58
2018-08-07T14:12:44.039Z,39.90
2018-08-07T14:15:14.264Z,38.69
2018-08-07T14:17:44.094Z,38.61
2018-08-07T14:20:13.830Z,37.51
2018-08-07T14:22:42.508Z,37.22
2018-08-07T14:25:13.455Z,38.54
2018-08-07T14:27:41.927Z,38.28
2018-08-07T14:30:26.379Z,40.59
2018-08-07T14:32:54.892Z,38.94
2018-08-07T14:35:23.472Z,38.09
2018-08-07T14:37:51.949Z,39.96
2018-08-07T14:40:23.207Z,39.78
2018-08-07T14:42:52.160Z,40.19
2018-08-07T14:45:23.166Z,38.94
2018-08-07T14:47:52.610Z,39.73
2018-08-07T14:50:23.631Z,40.38
2018-08-07T14:52:52.580Z,41.03
2018-08-07T14:55:21.442Z,40.08
2018-08-07T14:57:50.141Z,38.58
2018-08-07T15:00:21.917Z,38.36
2018-08-07T15:02:50.849Z,38.71
2018-08-07T15:05:19.371Z,38.82
2018-08-07T15:07:48.091Z,38.33
2018-08-07T15:10:25.350Z,38.14
2018-08-07T15:12:53.852Z,36.84
2018-08-07T15:15:27.079Z,37.23
2018-08-07T15:17:55.864Z,38.82
2018-08-07T15:20:26.175Z,38.08
2018-08-07T15:22:55.457Z,38.61
2018-08-07T15:25:24.750Z,39.20
2018-08-07T15:27:53.206Z,39.52
2018-08-07T15:30:24.837Z,37.41
2018-08-07T15:32:53.719Z,38.88
2018-08-07T15:35:24.732Z,38.33
2018-08-07T15:37:53.140Z,37.90
2018-08-07T15:40:22.171Z,37.07
2018-08-07T15:42:50.692Z,36.97
2018-08-07T15:45:21.902Z,36.69
2018-08-07T15:47:50.701Z,37.06
2018-08-07T15:50:19.968Z,36.39
2018-08-07T15:52:50.286Z,36.21
2018-08-07T15:55:20.671Z,35.74
2018-08-07T15:57:49.178Z,35.62
2018-08-07T16:00:20.016Z,35.39
2018-08-07T16:02:48.590Z,35.22
2018-08-07T16:05:17.819Z,34.97
2018-08-07T16:07:46.355Z,34.93
2018-08-07T16:10:16.338Z,35.25
2018-08-07T16:12:45.896Z,34.85
2018-08-07T16:15:14.700Z,34.55
2018-08-07T16:17:44.880Z,34.43
2018-08-07T16:20:13.571Z,34.57
2018-08-07T16:22:42.104Z,34.36
2018-08-07T16:25:12.447Z,34.38
2018-08-07T16:27:42.534Z,34.36
2018-08-07T16:30:14.106Z,34.13
2018-08-07T16:32:42.506Z,33.84
2018-08-07T16:35:11.296Z,33.90
2018-08-07T16:37:39.784Z,33.98
2018-08-07T16:40:10.612Z,33.42
2018-08-07T16:42:39.408Z,33.09
2018-08-07T16:45:10.331Z,33.46
2018-08-07T16:47:39.363Z,33.45
2018-08-07T16:50:09.374Z,32.93
2018-08-07T16:52:37.873Z,32.92
2018-08-07T16:55:07.392Z,33.01
2018-08-07T16:57:35.891Z,32.57
2018-08-07T17:00:05.812Z,32.32
2018-08-07T17:02:34.328Z,32.42
2018-08-07T17:05:02.826Z,32.48
2018-08-07T17:07:31.320Z,32.58
2018-08-07T17:09:59.795Z,32.34
2018-08-07T17:12:28.299Z,32.29
2018-08-07T17:14:56.748Z,31.95
2018-08-07T17:17:25.241Z,32.00
2018-08-07T17:19:53.690Z,32.13
2018-08-07T17:22:22.237Z,31.83
2018-08-07T17:24:50.742Z,31.77
2018-08-07T17:27:19.457Z,31.62
2018-08-07T17:29:47.999Z,31.29
2018-08-07T17:32:16.465Z,31.72
2018-08-07T17:34:44.958Z,31.69
2018-08-07T17:37:13.531Z,31.59
2018-08-07T17:39:42.138Z,31.79
2018-08-07T17:42:10.579Z,31.57
2018-08-07T17:44:39.042Z,31.41
2018-08-07T17:47:07.550Z,31.23
2018-08-07T17:49:35.991Z,31.27
2018-08-07T17:52:04.787Z,31.28
2018-08-07T17:54:33.258Z,31.17
2018-08-07T17:57:01.783Z,31.13
2018-08-07T17:59:30.304Z,31.06
2018-08-07T18:01:58.869Z,30.95
2018-08-07T18:04:27.348Z,30.81
2018-08-07T18:06:55.898Z,30.74
2018-08-07T18:09:24.566Z,30.77
2018-08-07T18:11:53.039Z,30.47
2018-08-07T18:14:21.576Z,30.13
2018-08-07T18:16:50.055Z,29.72
2018-08-07T18:19:18.527Z,29.78
2018-08-07T18:21:47.094Z,29.93
2018-08-07T18:24:15.568Z,29.59
2018-08-07T18:26:44.072Z,29.34
2018-08-07T18:29:12.574Z,29.24
2018-08-07T18:31:41.035Z,29.30
2018-08-07T18:34:09.924Z,28.81
2018-08-07T18:36:38.370Z,28.63
2018-08-07T18:39:08.954Z,28.78
2018-08-07T18:41:37.416Z,28.43
2018-08-07T18:44:06.068Z,28.27
2018-08-07T18:46:35.032Z,28.25
2018-08-07T18:49:03.792Z,28.08
2018-08-07T18:51:32.398Z,28.21
2018-08-07T18:54:00.843Z,28.14
2018-08-07T18:56:29.561Z,28.15
2018-08-07T18:58:58.075Z,27.97
2018-08-07T19:01:26.507Z,27.98
2018-08-07T19:03:55.135Z,27.99
2018-08-07T19:06:23.627Z,27.89
2018-08-07T19:08:52.529Z,28.08
2018-08-07T19:11:21.106Z,27.78
2018-08-07T19:13:49.612Z,27.87
2018-08-07T19:16:18.180Z,27.62
2018-08-07T19:18:46.836Z,27.57
2018-08-07T19:21:15.263Z,27.65
2018-08-07T19:23:43.744Z,27.67
2018-08-07T19:26:12.274Z,27.57
2018-08-07T19:28:40.952Z,27.58
2018-08-07T19:31:09.800Z,27.65
2018-08-07T19:33:38.403Z,27.69
2018-08-07T19:36:07.276Z,27.56
2018-08-07T19:38:35.867Z,27.38
2018-08-07T19:41:04.420Z,27.40
2018-08-07T19:43:32.888Z,27.36
2018-08-07T19:46:01.414Z,27.49
2018-08-07T19:48:29.929Z,27.47
2018-08-07T19:50:58.668Z,27.47
2018-08-07T19:53:27.168Z,27.41
2018-08-07T19:55:55.642Z,27.41
2018-08-07T19:58:24.313Z,27.31
2018-08-07T20:00:52.994Z,27.14
2018-08-07T20:03:21.431Z,27.05
2018-08-07T20:05:49.886Z,27.08
2018-08-07T20:08:18.315Z,27.17
2018-08-07T20:10:46.838Z,27.46
2018-08-07T20:13:15.315Z,27.28
2018-08-07T20:15:43.800Z,27.27
2018-08-07T20:18:12.480Z,27.25
2018-08-07T20:20:40.911Z,27.22
2018-08-07T20:23:09.384Z,27.16
2018-08-07T20:25:38.055Z,27.13
2018-08-07T20:28:07.052Z,27.08
2018-08-07T20:30:35.524Z,26.97
2018-08-07T20:33:04.089Z,26.93
2018-08-07T20:35:32.531Z,26.91
2018-08-07T20:38:01.133Z,27.00
2018-08-07T20:40:29.725Z,26.97
2018-08-07T20:42:58.968Z,26.94
2018-08-07T20:45:27.831Z,26.98
2018-08-07T20:47:56.305Z,26.93
2018-08-07T20:50:26.165Z,26.92
2018-08-07T20:52:55.413Z,26.94
2018-08-07T20:55:24.134Z,26.91
2018-08-07T20:57:52.620Z,26.87
2018-08-07T21:00:25.175Z,26.75
2018-08-07T21:02:53.718Z,26.68
2018-08-07T21:05:22.867Z,26.76
2018-08-07T21:07:51.957Z,26.57
2018-08-07T21:10:24.488Z,26.56
2018-08-07T21:12:53.411Z,26.73
2018-08-07T21:15:21.896Z,26.73
2018-08-07T21:17:50.376Z,26.48
2018-08-07T21:20:20.363Z,26.47
2018-08-07T21:22:49.196Z,26.35
2018-08-07T21:25:21.145Z,26.28
2018-08-07T21:27:51.458Z,26.29
2018-08-07T21:30:21.683Z,26.09
2018-08-07T21:32:50.177Z,26.00
2018-08-07T21:35:18.866Z,25.88
2018-08-07T21:37:47.370Z,25.91
2018-08-07T21:40:18.637Z,25.94
2018-08-07T21:42:47.612Z,25.78
2018-08-07T21:45:16.481Z,25.78
2018-08-07T21:47:45.490Z,25.67
2018-08-07T21:50:17.067Z,25.88
2018-08-07T21:52:45.641Z,25.77
2018-08-07T21:55:15.429Z,25.86
2018-08-07T21:57:44.114Z,25.87
2018-08-07T22:00:19.448Z,25.76
2018-08-07T22:02:49.194Z,25.66
2018-08-07T22:05:17.764Z,25.35
2018-08-07T22:07:46.287Z,25.01
2018-08-07T22:10:21.042Z,25.30
2018-08-07T22:12:49.502Z,25.58
2018-08-07T22:15:19.122Z,25.77
2018-08-07T22:17:47.606Z,25.51
2018-08-07T22:20:16.112Z,25.58
2018-08-07T22:22:44.643Z,25.50
2018-08-07T22:25:13.540Z,25.70
2018-08-07T22:27:42.072Z,25.64
2018-08-07T22:30:16.982Z,25.49
2018-08-07T22:32:45.542Z,25.44
2018-08-07T22:35:14.069Z,25.19
2018-08-07T22:37:42.495Z,25.23
2018-08-07T22:40:12.009Z,25.34
2018-08-07T22:42:40.494Z,25.30
2018-08-07T22:45:12.139Z,25.25
2018-08-07T22:47:40.951Z,25.17
2018-08-07T22:50:10.734Z,25.06
2018-08-07T22:52:39.471Z,25.01
2018-08-07T22:55:10.264Z,24.89
2018-08-07T22:57:38.815Z,25.03
2018-08-07T23:00:14.655Z,24.87
2018-08-07T23:02:43.418Z,24.96
2018-08-07T23:05:13.306Z,24.95
2018-08-07T23:07:42.053Z,24.93
2018-08-07T23:10:16.543Z,24.82
2018-08-07T23:12:45.452Z,24.69
2018-08-07T23:15:16.176Z,24.75
2018-08-07T23:17:45.272Z,24.70
2018-08-07T23:20:15.506Z,24.67
2018-08-07T23:22:44.010Z,24.44
2018-08-07T23:25:13.010Z,24.33
2018-08-07T23:27:41.533Z,24.35
2018-08-07T23:30:14.710Z,24.26
2018-08-07T23:32:43.163Z,24.30
2018-08-07T23:35:12.109Z,24.46
2018-08-07T23:37:40.595Z,24.44
2018-08-07T23:40:10.960Z,24.40
2018-08-07T23:42:40.043Z,24.26
2018-08-07T23:45:10.287Z,23.99
2018-08-07T23:47:38.796Z,23.85
2018-08-07T23:50:08.167Z,23.81
2018-08-07T23:52:36.679Z,23.85
2018-08-07T23:55:05.866Z,23.71
2018-08-07T23:57:34.354Z,23.81
